Time,TemperatureF,DewpointF,PressureIn,WindDirection,WindDirectionDegrees,WindSpeedMPH,WindSpeedGustMPH,Humidity,HourlyPrecipIn,Conditions,Clouds,dailyrainin,SoftwareType,DateUTC
2013-04-05 00:03:00,42.0,-99.9,30.09,SSW,209,7.0,12.0,-999,-99.99,,,-99.99,,2013-04-05 04:03:00,
2013-04-05 00:13:00,42.0,-99.9,30.08,SSW,208,4.0,8.0,-999,-99.99,,,-99.99,,2013-04-05 04:13:00,
2013-04-05 00:23:00,42.0,-99.9,30.08,SSW,199,5.0,9.0,-999,-99.99,,,-99.99,,2013-04-05 04:23:00,
2013-04-05 00:33:00,42.0,-99.9,30.07,SSW,192,4.0,7.0,-999,-99.99,,,-99.99,,2013-04-05 04:33:00,
2013-04-05 00:43:00,42.0,-99.9,30.07,South,190,6.0,10.0,-999,-99.99,,,-99.99,,2013-04-05 04:43:00,
2013-04-05 00:52:00,42.0,-99.9,30.07,South,184,6.0,9.0,-999,-99.99,,,-99.99,,2013-04-05 04:52:00,
2013-04-05 01:02:00,42.0,-99.9,30.06,South,184,5.0,9.0,-999,-99.99,,,-99.99,,2013-04-05 05:02:00,
2013-04-05 01:13:00,42.0,-99.9,30.06,South,187,5.0,8.0,-999,-99.99,,,-99.99,,2013-04-05 05:13:00,
2013-04-05 01:22:00,41.0,-99.9,30.06,South,185,8.0,11.0,-999,-99.99,,,-99.99,,2013-04-05 05:22:00,
2013-04-05 01:32:00,41.0,-99.9,30.06,South,190,7.0,13.0,-999,-99.99,,,-99.99,,2013-04-05 05:32:00,
2013-04-05 01:42:00,41.0,-99.9,30.06,South,188,7.0,11.0,-999,-99.99,,,-99.99,,2013-04-05 05:42:00,
2013-04-05 01:53:00,41.0,-99.9,30.06,South,191,6.0,13.0,-999,-99.99,,,-99.99,,2013-04-05 05:53:00,
2013-04-05 02:03:00,41.0,-99.9,30.06,SSW,193,6.0,11.0,-999,-99.99,,,-99.99,,2013-04-05 06:03:00,
2013-04-05 02:12:00,41.0,-99.9,30.06,SSW,207,5.0,8.0,-999,-99.99,,,-99.99,,2013-04-05 06:12:00,
2013-04-05 02:22:00,41.0,-99.9,30.04,SSW,211,5.0,10.0,-999,-99.99,,,-99.99,,2013-04-05 06:22:00,
2013-04-05 02:32:00,41.0,-99.9,30.03,SSW,200,3.0,4.0,-999,-99.99,,,-99.99,,2013-04-05 06:32:00,
2013-04-05 02:42:00,41.0,-99.9,30.02,SSW,205,4.0,6.0,-999,-99.99,,,-99.99,,2013-04-05 06:42:00,
2013-04-05 02:52:00,41.0,-99.9,30.02,SSW,195,5.0,8.0,-999,-99.99,,,-99.99,,2013-04-05 06:52:00,
2013-04-05 03:03:00,41.0,-99.9,30.01,South,190,6.0,10.0,-999,-99.99,,,-99.99,,2013-04-05 07:03:00,
2013-04-05 03:12:00,41.0,-99.9,30.01,South,183,7.0,11.0,-999,-99.99,,,-99.99,,2013-04-05 07:12:00,
2013-04-05 03:23:00,41.0,-99.9,30.01,South,190,6.0,9.0,-999,-99.99,,,-99.99,,2013-04-05 07:23:00,
2013-04-05 03:32:00,41.0,-99.9,30.01,SSW,195,6.0,11.0,-999,-99.99,,,-99.99,,2013-04-05 07:32:00,
2013-04-05 03:42:00,41.0,-99.9,30.01,SSW,197,4.0,6.0,-999,-99.99,,,-99.99,,2013-04-05 07:42:00,
2013-04-05 03:53:00,41.0,-99.9,30.00,SSW,193,4.0,6.0,-999,-99.99,,,-99.99,,2013-04-05 07:53:00,
2013-04-05 04:03:00,41.0,-99.9,29.99,South,188,4.0,6.0,-999,-99.99,,,-99.99,,2013-04-05 08:03:00,
2013-04-05 04:13:00,41.0,-99.9,29.99,SSW,195,5.0,8.0,-999,-99.99,,,-99.99,,2013-04-05 08:13:00,
2013-04-05 04:23:00,41.0,-99.9,29.98,SSW,197,5.0,9.0,-999,-99.99,,,-99.99,,2013-04-05 08:23:00,
2013-04-05 04:33:00,41.0,-99.9,29.98,South,184,6.0,9.0,-999,-99.99,,,-99.99,,2013-04-05 08:33:00,
2013-04-05 04:43:00,41.0,-99.9,29.98,SSW,205,1.0,3.0,-999,-99.99,,,-99.99,,2013-04-05 08:43:00,
2013-04-05 04:52:00,41.0,-99.9,29.97,South,187,5.0,6.0,-999,-99.99,,,-99.99,,2013-04-05 08:52:00,
2013-04-05 05:02:00,41.0,-99.9,29.97,SSW,201,3.0,5.0,-999,-99.99,,,-99.99,,2013-04-05 09:02:00,
2013-04-05 05:13:00,41.0,-99.9,29.96,SSW,206,3.0,6.0,-999,-99.99,,,-99.99,,2013-04-05 09:13:00,
2013-04-05 05:22:00,41.0,-99.9,29.96,SW,228,2.0,4.0,-999,-99.99,,,-99.99,,2013-04-05 09:22:00,
2013-04-05 05:33:00,41.0,-99.9,29.96,SW,223,3.0,5.0,-999,-99.99,,,-99.99,,2013-04-05 09:33:00,
2013-04-05 05:43:00,41.0,-99.9,29.96,SSW,196,4.0,6.0,-999,-99.99,,,-99.99,,2013-04-05 09:43:00,
2013-04-05 05:53:00,41.0,-99.9,29.95,SSW,213,2.0,4.0,-999,-99.99,,,-99.99,,2013-04-05 09:53:00,
2013-04-05 06:03:00,41.0,-99.9,29.95,South,178,2.0,3.0,-999,-99.99,,,-99.99,,2013-04-05 10:03:00,
2013-04-05 06:13:00,41.0,-99.9,29.95,SW,216,2.0,3.0,-999,-99.99,,,-99.99,,2013-04-05 10:13:00,
2013-04-05 06:23:00,41.0,-99.9,29.94,NE,41,0.0,1.0,-999,-99.99,,,-99.99,,2013-04-05 10:23:00,
2013-04-05 06:33:00,41.0,-99.9,29.93,SW,228,2.0,3.0,-999,-99.99,,,-99.99,,2013-04-05 10:33:00,
2013-04-05 06:43:00,41.0,-99.9,29.94,South,169,3.0,5.0,-999,-99.99,,,-99.99,,2013-04-05 10:43:00,
2013-04-05 06:54:00,41.0,-99.9,29.93,South,188,4.0,5.0,-999,-99.99,,,-99.99,,2013-04-05 10:54:00,
2013-04-05 07:03:00,41.0,-99.9,29.93,South,187,4.0,6.0,-999,-99.99,,,-99.99,,2013-04-05 11:03:00,
2013-04-05 07:13:00,41.0,-99.9,29.93,SSW,205,2.0,4.0,-999,-99.99,,,-99.99,,2013-04-05 11:13:00,
2013-04-05 07:23:00,41.0,-99.9,29.93,WSW,240,1.0,1.0,-999,-99.99,,,-99.99,,2013-04-05 11:23:00,
2013-04-05 07:33:00,41.0,-99.9,29.93,West,261,2.0,3.0,-999,-99.99,,,-99.99,,2013-04-05 11:33:00,
2013-04-05 07:42:00,41.0,-99.9,29.93,South,173,1.0,2.0,-999,-99.99,,,-99.99,,2013-04-05 11:42:00,
2013-04-05 07:52:00,41.0,-99.9,29.92,SSW,212,2.0,4.0,-999,-99.99,,,-99.99,,2013-04-05 11:52:00,
2013-04-05 08:02:00,41.0,-99.9,29.92,South,184,2.0,2.0,-999,-99.99,,,-99.99,,2013-04-05 12:02:00,
2013-04-05 08:12:00,41.0,-99.9,29.92,SSE,167,1.0,2.0,-999,-99.99,,,-99.99,,2013-04-05 12:12:00,
2013-04-05 08:22:00,41.0,-99.9,29.91,North,-999,-999.0,-999.0,-999,-99.99,,,-99.99,,2013-04-05 12:22:00,
2013-04-05 08:32:00,41.0,-99.9,29.91,WNW,293,1.0,1.0,-999,-99.99,,,-99.99,,2013-04-05 12:32:00,
2013-04-05 08:42:00,41.0,-99.9,29.90,North,351,1.0,2.0,-999,-99.99,,,-99.99,,2013-04-05 12:42:00,
2013-04-05 08:53:00,41.0,-99.9,29.90,North,-999,-999.0,-999.0,-999,-99.99,,,-99.99,,2013-04-05 12:53:00,
2013-04-05 09:02:00,41.0,-99.9,29.90,WNW,296,0.0,1.0,-999,-99.99,,,-99.99,,2013-04-05 13:02:00,
2013-04-05 09:12:00,42.0,-99.9,29.91,NNW,344,1.0,1.0,-999,-99.99,,,-99.99,,2013-04-05 13:12:00,
2013-04-05 09:23:00,42.0,-99.9,29.90,ESE,121,0.0,1.0,-999,-99.99,,,-99.99,,2013-04-05 13:23:00,
2013-04-05 09:32:00,42.0,-99.9,29.90,ENE,70,1.0,2.0,-999,-99.99,,,-99.99,,2013-04-05 13:32:00,
2013-04-05 09:43:00,42.0,-99.9,29.88,North,10,1.0,1.0,-999,-99.99,,,-99.99,,2013-04-05 13:43:00,
2013-04-05 09:53:00,44.0,-99.9,29.87,North,-999,-999.0,-999.0,-999,-99.99,,,-99.99,,2013-04-05 13:53:00,
2013-04-05 10:03:00,44.0,-99.9,29.87,WNW,293,1.0,2.0,-999,-99.99,,,-99.99,,2013-04-05 14:03:00,
2013-04-05 10:12:00,44.0,-99.9,29.87,North,352,0.0,1.0,-999,-99.99,,,-99.99,,2013-04-05 14:12:00,
2013-04-05 10:23:00,44.0,-99.9,29.86,NW,314,1.0,2.0,-999,-99.99,,,-99.99,,2013-04-05 14:23:00,
2013-04-05 10:37:00,44.0,-99.9,29.86,North,9,1.0,1.0,-999,-99.99,,,-99.99,,2013-04-05 14:37:00,
2013-04-05 10:43:00,45.0,-99.9,29.85,North,-999,-999.0,-999.0,-999,-99.99,,,-99.99,,2013-04-05 14:43:00,
2013-04-05 10:55:00,45.0,-99.9,29.86,North,-999,2.0,2.0,-999,-99.99,,,-99.99,,2013-04-05 14:55:00,
2013-04-05 11:02:00,45.0,-99.9,29.86,NNE,16,1.0,2.0,-999,-99.99,,,-99.99,,2013-04-05 15:02:00,
2013-04-05 11:13:00,46.0,-99.9,29.85,NNE,24,2.0,2.0,-999,-99.99,,,-99.99,,2013-04-05 15:13:00,
2013-04-05 11:24:00,46.0,-99.9,29.84,NNE,15,1.0,2.0,-999,-99.99,,,-99.99,,2013-04-05 15:24:00,
2013-04-05 11:34:00,47.0,-99.9,29.84,NNE,15,4.0,4.0,-999,-99.99,,,-99.99,,2013-04-05 15:34:00,
2013-04-05 11:43:00,47.0,-99.9,29.83,North,349,6.0,7.0,-999,-99.99,,,-99.99,,2013-04-05 15:43:00,
2013-04-05 11:55:00,48.0,-99.9,29.83,NNW,348,4.0,6.0,-999,-99.99,,,-99.99,,2013-04-05 15:55:00,
2013-04-05 12:03:00,49.0,-99.9,29.82,North,359,4.0,6.0,-999,-99.99,,,-99.99,,2013-04-05 16:03:00,
2013-04-05 12:15:00,49.0,-99.9,29.82,North,4,2.0,4.0,-999,-99.99,,,-99.99,,2013-04-05 16:15:00,
2013-04-05 12:23:00,50.0,-99.9,29.81,NNE,12,2.0,3.0,-999,-99.99,,,-99.99,,2013-04-05 16:23:00,
2013-04-05 12:33:00,51.0,-99.9,29.80,NNE,13,1.0,2.0,-999,-99.99,,,-99.99,,2013-04-05 16:33:00,
2013-04-05 12:43:00,51.0,-99.9,29.80,North,6,6.0,8.0,-999,-99.99,,,-99.99,,2013-04-05 16:43:00,
2013-04-05 12:53:00,51.0,-99.9,29.79,NNW,336,6.0,9.0,-999,-99.99,,,-99.99,,2013-04-05 16:53:00,
2013-04-05 13:04:00,52.0,-99.9,29.79,North,351,11.0,14.0,-999,-99.99,,,-99.99,,2013-04-05 17:04:00,
2013-04-05 13:13:00,53.0,-99.9,29.78,North,359,6.0,9.0,-999,-99.99,,,-99.99,,2013-04-05 17:13:00,
2013-04-05 13:24:00,54.0,-99.9,29.77,NNW,340,7.0,8.0,-999,-99.99,,,-99.99,,2013-04-05 17:24:00,
2013-04-05 13:33:00,54.0,-99.9,29.76,NNW,332,11.0,14.0,-999,-99.99,,,-99.99,,2013-04-05 17:33:00,
2013-04-05 13:46:00,55.0,-99.9,29.75,North,10,6.0,8.0,-999,-99.99,,,-99.99,,2013-04-05 17:46:00,
2013-04-05 13:53:00,55.0,-99.9,29.74,North,354,7.0,11.0,-999,-99.99,,,-99.99,,2013-04-05 17:53:00,
2013-04-05 14:03:00,55.0,-99.9,29.73,North,350,3.0,4.0,-999,-99.99,,,-99.99,,2013-04-05 18:03:00,
2013-04-05 14:13:00,57.0,-99.9,29.73,NNW,333,2.0,3.0,-999,-99.99,,,-99.99,,2013-04-05 18:13:00,
2013-04-05 14:23:00,57.0,-99.9,29.73,NNW,343,6.0,9.0,-999,-99.99,,,-99.99,,2013-04-05 18:23:00,
2013-04-05 14:35:00,57.0,-99.9,29.73,NW,324,8.0,15.0,-999,-99.99,,,-99.99,,2013-04-05 18:35:00,
2013-04-05 14:43:00,57.0,-99.9,29.72,NW,319,11.0,15.0,-999,-99.99,,,-99.99,,2013-04-05 18:43:00,
2013-04-05 14:53:00,57.0,-99.9,29.72,NNW,341,13.0,19.0,-999,-99.99,,,-99.99,,2013-04-05 18:53:00,
2013-04-05 15:03:00,57.0,-99.9,29.71,NNW,336,12.0,15.0,-999,-99.99,,,-99.99,,2013-04-05 19:03:00,
2013-04-05 15:14:00,58.0,-99.9,29.71,WNW,295,4.0,10.0,-999,-99.99,,,-99.99,,2013-04-05 19:14:00,
2013-04-05 15:23:00,58.0,-99.9,29.70,NNW,328,12.0,16.0,-999,-99.99,,,-99.99,,2013-04-05 19:23:00,
2013-04-05 15:34:00,58.0,-99.9,29.70,NNW,329,17.0,23.0,-999,-99.99,,,-99.99,,2013-04-05 19:34:00,
2013-04-05 15:43:00,59.0,-99.9,29.70,NW,322,12.0,15.0,-999,-99.99,,,-99.99,,2013-04-05 19:43:00,
2013-04-05 15:53:00,60.0,-99.9,29.70,NW,309,12.0,19.0,-999,-99.99,,,-99.99,,2013-04-05 19:53:00,
2013-04-05 16:03:00,60.0,-99.9,29.70,NW,315,15.0,21.0,-999,-99.99,,,-99.99,,2013-04-05 20:03:00,
2013-04-05 16:11:00,59.0,-99.9,29.69,NW,320,23.0,29.0,-999,-99.99,,,-99.99,,2013-04-05 20:11:00,
2013-04-05 16:23:00,57.0,-99.9,29.69,NNW,330,17.0,20.0,-999,-99.99,,,-99.99,,2013-04-05 20:23:00,
2013-04-05 16:33:00,58.0,-99.9,29.69,NNW,329,18.0,24.0,-999,-99.99,,,-99.99,,2013-04-05 20:33:00,
2013-04-05 16:43:00,58.0,-99.9,29.69,NNW,334,19.0,22.0,-999,-99.99,,,-99.99,,2013-04-05 20:43:00,
2013-04-05 16:53:00,58.0,-99.9,29.69,NW,314,16.0,24.0,-999,-99.99,,,-99.99,,2013-04-05 20:53:00,
2013-04-05 17:03:00,58.0,-99.9,29.70,NNW,331,21.0,28.0,-999,-99.99,,,-99.99,,2013-04-05 21:03:00,
2013-04-05 17:13:00,57.0,-99.9,29.70,NW,315,16.0,23.0,-999,-99.99,,,-99.99,,2013-04-05 21:13:00,
2013-04-05 17:24:00,57.0,-99.9,29.71,NNW,332,21.0,25.0,-999,-99.99,,,-99.99,,2013-04-05 21:24:00,
2013-04-05 17:35:00,57.0,-99.9,29.71,NW,322,18.0,26.0,-999,-99.99,,,-99.99,,2013-04-05 21:35:00,
2013-04-05 17:44:00,58.0,-99.9,29.72,NNW,332,17.0,28.0,-999,-99.99,,,-99.99,,2013-04-05 21:44:00,
2013-04-05 17:55:00,57.0,-99.9,29.73,NNW,328,23.0,28.0,-999,-99.99,,,-99.99,,2013-04-05 21:55:00,
2013-04-05 18:04:00,56.0,-99.9,29.73,NNW,348,18.0,22.0,-999,-99.99,,,-99.99,,2013-04-05 22:04:00,
2013-04-05 18:13:00,56.0,-99.9,29.74,NW,321,16.0,21.0,-999,-99.99,,,-99.99,,2013-04-05 22:13:00,
2013-04-05 18:23:00,57.0,-99.9,29.75,NNW,339,23.0,29.0,-999,-99.99,,,-99.99,,2013-04-05 22:23:00,
2013-04-05 18:34:00,56.0,-99.9,29.76,NW,320,16.0,21.0,-999,-99.99,,,-99.99,,2013-04-05 22:34:00,
2013-04-05 18:44:00,56.0,-99.9,29.77,NNW,328,19.0,24.0,-999,-99.99,,,-99.99,,2013-04-05 22:44:00,
2013-04-05 18:53:00,56.0,-99.9,29.78,NNW,345,21.0,26.0,-999,-99.99,,,-99.99,,2013-04-05 22:53:00,
2013-04-05 19:03:00,56.0,-99.9,29.78,NW,319,14.0,20.0,-999,-99.99,,,-99.99,,2013-04-05 23:03:00,
2013-04-05 19:13:00,56.0,-99.9,29.78,NNW,341,16.0,20.0,-999,-99.99,,,-99.99,,2013-04-05 23:13:00,
2013-04-05 19:23:00,56.0,-99.9,29.79,NNW,347,19.0,23.0,-999,-99.99,,,-99.99,,2013-04-05 23:23:00,
2013-04-05 19:33:00,55.0,-99.9,29.79,North,349,16.0,20.0,-999,-99.99,,,-99.99,,2013-04-05 23:33:00,
2013-04-05 19:43:00,55.0,-99.9,29.79,NNW,336,19.0,24.0,-999,-99.99,,,-99.99,,2013-04-05 23:43:00,
2013-04-05 19:53:00,55.0,-99.9,29.80,NNW,339,19.0,22.0,-999,-99.99,,,-99.99,,2013-04-05 23:53:00,
2013-04-05 20:03:00,55.0,-99.9,29.80,NNW,337,22.0,28.0,-999,-99.99,,,-99.99,,2013-04-06 00:03:00,
2013-04-05 20:13:00,54.0,-99.9,29.81,NNW,344,18.0,21.0,-999,-99.99,,,-99.99,,2013-04-06 00:13:00,
2013-04-05 20:23:00,54.0,-99.9,29.82,NNW,344,16.0,20.0,-999,-99.99,,,-99.99,,2013-04-06 00:23:00,
2013-04-05 20:33:00,53.0,-99.9,29.83,NNW,344,20.0,23.0,-999,-99.99,,,-99.99,,2013-04-06 00:33:00,
2013-04-05 20:43:00,53.0,-99.9,29.83,North,349,19.0,21.0,-999,-99.99,,,-99.99,,2013-04-06 00:43:00,
2013-04-05 20:53:00,53.0,-99.9,29.84,NNW,343,22.0,26.0,-999,-99.99,,,-99.99,,2013-04-06 00:53:00,
2013-04-05 21:02:00,52.0,-99.9,29.85,NNW,346,26.0,31.0,-999,-99.99,,,-99.99,,2013-04-06 01:02:00,
2013-04-05 21:13:00,52.0,-99.9,29.86,NNW,347,22.0,28.0,-999,-99.99,,,-99.99,,2013-04-06 01:13:00,
2013-04-05 21:23:00,51.0,-99.9,29.87,NNW,344,22.0,27.0,-999,-99.99,,,-99.99,,2013-04-06 01:23:00,
2013-04-05 21:33:00,51.0,-99.9,29.88,NNW,338,19.0,25.0,-999,-99.99,,,-99.99,,2013-04-06 01:33:00,
2013-04-05 21:44:00,51.0,-99.9,29.89,NNW,329,21.0,26.0,-999,-99.99,,,-99.99,,2013-04-06 01:44:00,
2013-04-05 21:53:00,50.0,-99.9,29.90,North,349,22.0,27.0,-999,-99.99,,,-99.99,,2013-04-06 01:53:00,
2013-04-05 22:03:00,50.0,-99.9,29.90,North,350,24.0,28.0,-999,-99.99,,,-99.99,,2013-04-06 02:03:00,
2013-04-05 22:13:00,49.0,-99.9,29.91,North,354,16.0,22.0,-999,-99.99,,,-99.99,,2013-04-06 02:13:00,
2013-04-05 22:23:00,48.0,-99.9,29.92,NNW,345,19.0,23.0,-999,-99.99,,,-99.99,,2013-04-06 02:23:00,
2013-04-05 22:33:00,48.0,-99.9,29.93,North,354,20.0,26.0,-999,-99.99,,,-99.99,,2013-04-06 02:33:00,
2013-04-05 22:43:00,47.0,-99.9,29.93,NNW,338,29.0,34.0,-999,-99.99,,,-99.99,,2013-04-06 02:43:00,
2013-04-05 22:53:00,46.0,-99.9,29.93,North,349,29.0,33.0,-999,-99.99,,,-99.99,,2013-04-06 02:53:00,
2013-04-05 23:13:00,46.0,-99.9,29.94,NNW,345,28.0,35.0,-999,-99.99,,,-99.99,,2013-04-06 03:13:00,
2013-04-05 23:23:00,45.0,-99.9,29.95,NNW,330,31.0,37.0,-999,-99.99,,,-99.99,,2013-04-06 03:23:00,
2013-04-05 23:34:00,45.0,-99.9,29.94,NNW,332,25.0,30.0,-999,-99.99,,,-99.99,,2013-04-06 03:34:00,
2013-04-05 23:44:00,45.0,-99.9,29.96,NNW,329,22.0,27.0,-999,-99.99,,,-99.99,,2013-04-06 03:44:00,
2013-04-05 23:55:00,44.0,-99.9,29.96,North,354,24.0,28.0,-999,-99.99,,,-99.99,,2013-04-06 03:55:00,